Starlake, Wisconsin
Current Conditions -  °F | °C
As of 10:15 AM on Wednesday 22 Oct 2014 (Local Time) from KEGV Reporting Station
Overcast Overcast  
Wind Chill: 32°   Ceiling: 200
Heat Index: 36°   Visibility: 10mi
Dew Point: 36°   Wind: 5mph
Humidity: 100%   Direction: 160°SSE
Pressure: 30.32"   Gusts: NA
Location:  46.0405°N, 89.4656°W
Report Text: KEGV 221515Z AUTO 16004KT 10SM OVC002 02/02 A3032 RMK AO2 T00200020
Loading
Personal Weather Stations






























Interactive Weather Map
Tropical Storm Tracking
New forecast layout! Learn more

10-Day Weather Forecast

Advertisements
Track Severe Weather on mobile